createdAt,value
2023-04-18T03:55:54.421Z,12.23
2023-04-18T03:58:58.712Z,12.32
2023-04-18T04:02:01.205Z,12.24
2023-04-18T04:05:04.870Z,12.23
2023-04-18T04:08:07.046Z,12.37
2023-04-18T04:11:09.714Z,12.24
2023-04-18T04:14:12.338Z,12.37
2023-04-18T04:17:15.501Z,12.17
2023-04-18T04:20:23.902Z,12.16
2023-04-18T04:23:27.578Z,12.04
2023-04-18T04:26:30.723Z,12.21
2023-04-18T04:29:33.612Z,12.18
2023-04-18T04:32:35.816Z,12.30
2023-04-18T04:35:38.323Z,12.38
2023-04-18T04:38:44.301Z,12.41
2023-04-18T04:41:47.185Z,12.22
2023-04-18T04:44:50.100Z,12.28
2023-04-18T04:47:52.734Z,12.24
2023-04-18T04:50:57.643Z,12.35
2023-04-18T04:54:00.545Z,12.32
2023-04-18T04:57:03.254Z,12.31
2023-04-18T05:00:07.286Z,12.37
2023-04-18T05:03:10.669Z,12.30
2023-04-18T05:06:14.089Z,12.37
2023-04-18T05:09:16.297Z,12.41
2023-04-18T05:12:18.769Z,12.38
2023-04-18T05:15:21.007Z,12.34
2023-04-18T05:18:23.447Z,12.39
2023-04-18T05:21:26.429Z,12.27
2023-04-18T05:24:28.932Z,12.32
2023-04-18T05:27:31.074Z,12.18
2023-04-18T05:30:33.465Z,12.17
2023-04-18T05:33:35.607Z,12.16
2023-04-18T05:36:38.097Z,12.31
2023-04-18T05:39:41.834Z,12.46
2023-04-18T05:42:44.356Z,12.58
2023-04-18T05:45:46.567Z,12.58
2023-04-18T05:48:49.068Z,12.78
2023-04-18T05:51:52.879Z,12.91
2023-04-18T05:54:55.460Z,13.04
2023-04-18T05:57:57.615Z,13.16
2023-04-18T06:01:00.000Z,13.03
2023-04-18T06:04:02.486Z,13.16
2023-04-18T06:07:04.819Z,13.28
2023-04-18T06:10:11.048Z,13.46
2023-04-18T06:13:13.199Z,13.63
2023-04-18T06:16:16.077Z,13.65
2023-04-18T06:19:18.308Z,13.64
2023-04-18T06:22:20.909Z,13.82
2023-04-18T06:25:23.099Z,13.77
2023-04-18T06:28:26.986Z,13.92
2023-04-18T06:31:29.145Z,13.94
2023-04-18T06:34:31.676Z,13.98
2023-04-18T06:37:33.846Z,14.08
2023-04-18T06:40:36.189Z,14.17
2023-04-18T06:43:38.487Z,14.19
2023-04-18T06:46:41.711Z,14.31
2023-04-18T06:49:43.836Z,14.41
2023-04-18T06:52:46.407Z,14.55
2023-04-18T06:55:48.997Z,14.73
2023-04-18T06:58:52.833Z,14.92
2023-04-18T07:01:54.996Z,15.13
2023-04-18T07:04:57.720Z,15.29
2023-04-18T07:08:00.126Z,15.28
2023-04-18T07:11:02.548Z,15.38
2023-04-18T07:14:04.694Z,15.42
2023-04-18T07:17:07.181Z,15.41
2023-04-18T07:20:12.311Z,15.29
2023-04-18T07:23:36.613Z,15.38
2023-04-18T07:26:39.373Z,15.25
2023-04-18T07:29:41.780Z,15.29
2023-04-18T07:32:44.041Z,15.34
2023-04-18T07:35:48.313Z,15.34
2023-04-18T07:38:52.463Z,15.45
2023-04-18T07:41:58.179Z,15.58
2023-04-18T07:45:00.865Z,15.57
2023-04-18T07:48:03.423Z,15.45
2023-04-18T07:51:05.713Z,15.58
2023-04-18T07:54:08.234Z,15.71
2023-04-18T07:57:11.273Z,15.64
2023-04-18T08:00:14.516Z,15.63
2023-04-18T08:03:17.102Z,15.79
2023-04-18T08:06:19.344Z,15.70
2023-04-18T08:09:22.175Z,15.70
2023-04-18T08:12:25.080Z,15.78
2023-04-18T08:15:28.932Z,15.93
2023-04-18T08:18:31.041Z,16.13
2023-04-18T08:21:33.439Z,16.35
2023-04-18T08:24:35.867Z,16.61
2023-04-18T08:27:38.309Z,16.45
2023-04-18T08:30:40.439Z,16.39
2023-04-18T08:33:43.283Z,16.20
2023-04-18T08:36:45.884Z,16.20
2023-04-18T08:39:48.343Z,16.05
2023-04-18T08:42:52.838Z,16.05
2023-04-18T08:46:01.007Z,15.87
2023-04-18T08:49:06.492Z,15.72
2023-04-18T08:52:19.046Z,15.64
2023-04-18T08:55:24.287Z,15.56
2023-04-18T08:58:27.595Z,15.67
2023-04-18T09:01:57.216Z,15.75
2023-04-18T09:04:59.713Z,15.90
2023-04-18T09:08:22.270Z,16.13
2023-04-18T09:11:32.101Z,16.48
2023-04-18T09:14:42.712Z,16.94
2023-04-18T09:17:52.399Z,17.33
2023-04-18T09:20:55.013Z,17.58
2023-04-18T09:24:29.465Z,17.91
2023-04-18T09:27:34.643Z,17.63
2023-04-18T09:30:39.581Z,17.70
2023-04-18T09:33:54.077Z,17.74
2023-04-18T09:37:07.575Z,17.57
2023-04-18T09:40:19.541Z,17.58
2023-04-18T09:43:22.024Z,17.49
2023-04-18T09:46:24.303Z,17.73
2023-04-18T09:49:27.441Z,17.93
2023-04-18T09:52:36.878Z,17.98
2023-04-18T09:55:40.185Z,17.83
2023-04-18T09:58:44.193Z,17.94
2023-04-18T10:01:48.393Z,18.01
2023-04-18T10:04:52.929Z,18.08
2023-04-18T10:07:55.778Z,18.12
2023-04-18T10:10:58.672Z,18.10
2023-04-18T10:14:07.869Z,18.30
2023-04-18T10:17:11.676Z,18.46
2023-04-18T10:20:20.223Z,18.67
2023-04-18T10:23:31.953Z,19.05
2023-04-18T10:26:46.983Z,19.03
2023-04-18T10:29:51.771Z,19.03
2023-04-18T10:32:56.949Z,18.95
2023-04-18T10:36:08.831Z,19.03
2023-04-18T10:39:25.047Z,18.84
2023-04-18T10:42:52.844Z,18.92
2023-04-18T10:46:31.692Z,19.01
2023-04-18T10:49:38.159Z,18.92
2023-04-18T10:52:41.500Z,18.90
2023-04-18T10:55:53.480Z,19.04
2023-04-18T10:59:01.269Z,19.14
2023-04-18T11:02:18.837Z,19.21
2023-04-18T11:05:29.057Z,19.15
2023-04-18T11:08:31.643Z,19.35
2023-04-18T11:11:33.757Z,19.19
2023-04-18T11:14:41.122Z,19.49
2023-04-18T11:17:44.464Z,19.73
2023-04-18T11:20:49.715Z,19.67
2023-04-18T11:23:54.571Z,19.74
2023-04-18T11:26:57.933Z,20.20
2023-04-18T11:33:41.239Z,20.45
2023-04-18T11:36:52.865Z,19.92
2023-04-18T11:39:55.658Z,19.54
2023-04-18T11:43:01.567Z,19.16
2023-04-18T11:46:04.100Z,18.97
2023-04-18T11:49:06.329Z,18.97
2023-04-18T11:52:13.379Z,19.13
2023-04-18T11:55:18.483Z,19.07
2023-04-18T11:58:31.687Z,19.01
2023-04-18T12:01:34.448Z,19.22
2023-04-18T12:04:58.286Z,19.20
2023-04-18T12:08:11.815Z,18.92
2023-04-18T12:11:21.527Z,18.63
2023-04-18T12:14:23.695Z,18.42
2023-04-18T12:17:27.370Z,18.43
2023-04-18T12:20:37.750Z,18.48
2023-04-18T12:23:42.414Z,18.65
2023-04-18T12:26:48.688Z,19.08
2023-04-18T12:29:51.122Z,19.50
2023-04-18T12:32:55.753Z,20.10
2023-04-18T12:35:58.196Z,20.30
2023-04-18T12:39:00.494Z,20.59
2023-04-18T12:42:02.918Z,20.65
2023-04-18T12:45:07.715Z,20.43
2023-04-18T12:48:10.331Z,20.10
2023-04-18T12:51:12.566Z,19.86
2023-04-18T12:54:15.073Z,19.77
2023-04-18T12:57:17.573Z,19.55
2023-04-18T13:00:23.185Z,19.44
2023-04-18T13:03:26.420Z,19.40
2023-04-18T13:06:28.940Z,19.21
2023-04-18T13:09:31.475Z,19.18
2023-04-18T13:12:34.259Z,19.16
2023-04-18T13:15:36.571Z,19.09
2023-04-18T13:18:38.959Z,18.99
2023-04-18T13:21:42.397Z,18.75
2023-04-18T13:24:44.845Z,18.90
2023-04-18T13:27:47.138Z,19.34
2023-04-18T13:30:49.497Z,19.61
2023-04-18T13:33:51.717Z,19.81
2023-04-18T13:36:54.119Z,19.85
2023-04-18T13:39:57.371Z,19.62
2023-04-18T13:42:59.729Z,19.25
2023-04-18T13:46:01.833Z,18.88
2023-04-18T13:49:04.291Z,19.24
2023-04-18T13:52:06.438Z,19.31
2023-04-18T13:55:10.463Z,18.97
2023-04-18T13:58:12.661Z,19.03
2023-04-18T14:01:16.590Z,19.26
2023-04-18T14:04:21.660Z,19.33
2023-04-18T14:07:23.937Z,19.52
2023-04-18T14:10:26.349Z,19.84
2023-04-18T14:13:28.518Z,19.89
2023-04-18T14:16:33.279Z,19.96
2023-04-18T14:19:35.379Z,19.92
2023-04-18T14:22:37.791Z,19.96
2023-04-18T14:25:39.870Z,20.10
2023-04-18T14:28:42.344Z,20.04
2023-04-18T14:31:44.735Z,20.21
2023-04-18T14:34:47.352Z,20.68
2023-04-18T14:37:49.428Z,21.15
2023-04-18T14:40:51.759Z,21.64
2023-04-18T14:43:53.918Z,21.68
2023-04-18T14:46:56.438Z,21.68
2023-04-18T14:49:58.615Z,21.90
2023-04-18T14:53:01.193Z,22.61
2023-04-18T14:56:03.436Z,23.73
2023-04-18T14:59:06.047Z,23.80
2023-04-18T15:02:08.226Z,24.47
2023-04-18T15:05:11.403Z,23.39
2023-04-18T15:08:14.563Z,22.52
2023-04-18T15:11:16.921Z,22.29
2023-04-18T15:14:19.076Z,22.85
2023-04-18T15:17:21.608Z,22.80
2023-04-18T15:20:24.215Z,23.17
